Time;durP1;ratioP1;P1;durP2;ratioP2;P2;SDS_P1;SDS_P2;PMS_P1;PMS_P2;Temp;Humidity;BMP_temperature;BMP_pressure;BME280_temperature;BME280_humidity;BME280_pressure;Samples;Min_cycle;Max_cycle;Signal;HPM_P1;HPM_P2
2023/12/08 00:01:58;;;;;;;39.23;24.60;;;;;;;0.82;100.00;100718.87;1450651;90;21804;-77
2023/12/08 00:04:24;;;;;;;41.07;25.10;;;;;;;0.82;100.00;100718.87;1449634;90;21742;-77
2023/12/08 00:06:51;;;;;;;43.40;25.50;;;;;;;0.83;100.00;100725.75;1451228;89;22537;-77
2023/12/08 00:09:17;;;;;;;36.73;22.93;;;;;;;0.83;100.00;100724.45;1455402;90;21427;-77
2023/12/08 00:11:43;;;;;;;43.63;25.23;;;;;;;0.83;100.00;100724.45;1455803;90;21767;-78
2023/12/08 00:14:09;;;;;;;39.80;22.97;;;;;;;0.77;100.00;100727.38;1448347;90;21583;-77
2023/12/08 00:16:35;;;;;;;46.07;26.47;;;;;;;0.77;100.00;100727.38;1450127;90;21748;-77
2023/12/08 00:19:02;;;;;;;48.50;29.60;;;;;;;0.76;100.00;100726.16;1452794;90;22704;-76
2023/12/08 00:21:28;;;;;;;46.90;27.93;;;;;;;0.78;100.00;100726.47;1445753;90;21624;-76
2023/12/08 00:23:54;;;;;;;60.67;33.33;;;;;;;0.78;100.00;100721.26;1452468;90;21672;-76
2023/12/08 00:26:20;;;;;;;63.80;34.70;;;;;;;0.78;100.00;100723.87;1454269;89;22017;-76
2023/12/08 00:28:46;;;;;;;43.00;26.83;;;;;;;0.79;100.00;100719.02;1447780;90;22558;-77
2023/12/08 00:31:12;;;;;;;53.63;30.67;;;;;;;0.81;100.00;100715.89;1447239;89;21843;-76
2023/12/08 00:33:38;;;;;;;50.97;30.63;;;;;;;0.83;100.00;100715.33;1443935;90;21699;-77
2023/12/08 00:36:16;;;;;;;44.97;25.83;;;;;;;0.87;100.00;100724.69;1449687;90;22626;-76
2023/12/08 00:38:44;;;;;;;44.63;26.03;;;;;;;0.89;100.00;100722.86;1442046;90;22719;-77
2023/12/08 00:41:11;;;;;;;51.53;30.53;;;;;;;0.89;100.00;100722.86;1377695;90;21803;-77
2023/12/08 00:43:37;;;;;;;37.43;22.93;;;;;;;0.90;100.00;100724.53;1447575;89;22728;-76
2023/12/08 00:46:04;;;;;;;46.20;24.00;;;;;;;0.92;100.00;100727.52;1451537;90;21972;-77
2023/12/08 00:48:31;;;;;;;33.60;22.63;;;;;;;0.89;100.00;100735.89;1446583;90;22185;-77
2023/12/08 00:50:57;;;;;;;40.20;23.60;;;;;;;0.86;100.00;100731.27;1457916;90;21925;-76
2023/12/08 00:53:23;;;;;;;43.30;24.20;;;;;;;0.86;100.00;100731.27;1448617;90;21847;-77
2023/12/08 00:55:49;;;;;;;41.27;22.67;;;;;;;0.89;100.00;100740.23;1444691;90;21973;-76
2023/12/08 00:58:15;;;;;;;40.97;23.27;;;;;;;0.83;100.00;100742.69;1451941;90;22092;-77
2023/12/08 01:00:44;;;;;;;40.17;22.87;;;;;;;0.80;100.00;100746.75;1451973;90;21685;-77
2023/12/08 01:03:11;;;;;;;37.73;22.47;;;;;;;0.74;100.00;100736.64;1454779;89;22269;-77
2023/12/08 01:05:37;;;;;;;35.40;22.23;;;;;;;0.73;100.00;100736.73;1453154;90;21876;-77
2023/12/08 01:08:04;;;;;;;39.30;23.57;;;;;;;0.70;100.00;100739.03;1452215;90;22461;-77
2023/12/08 01:10:30;;;;;;;38.40;22.77;;;;;;;0.70;100.00;100738.20;1451418;90;22951;-76
2023/12/08 01:12:56;;;;;;;36.50;22.17;;;;;;;0.71;100.00;100735.50;1447869;89;21747;-76
2023/12/08 01:15:23;;;;;;;34.47;21.37;;;;;;;0.71;100.00;100731.59;1451221;88;21644;-76
2023/12/08 01:17:49;;;;;;;33.57;19.87;;;;;;;0.72;100.00;100731.13;1451049;90;22557;-77
2023/12/08 01:20:15;;;;;;;35.93;21.77;;;;;;;0.66;100.00;100729.23;1446470;90;21678;-77
2023/12/08 01:22:41;;;;;;;32.27;19.33;;;;;;;0.66;100.00;100729.23;1451331;88;21803;-77
2023/12/08 01:25:07;;;;;;;32.47;20.37;;;;;;;0.67;100.00;100728.30;1447196;88;21853;-76
2023/12/08 01:27:33;;;;;;;31.43;18.63;;;;;;;0.67;100.00;100719.19;1452309;89;21626;-77
2023/12/08 01:30:00;;;;;;;35.53;20.90;;;;;;;0.74;100.00;100724.92;1446835;88;23294;-76
2023/12/08 01:32:26;;;;;;;32.13;20.27;;;;;;;0.76;100.00;100718.34;1447257;90;21802;-77
2023/12/08 01:34:52;;;;;;;35.77;20.77;;;;;;;0.75;100.00;100721.85;1441623;90;21804;-76
2023/12/08 01:37:18;;;;;;;33.93;20.27;;;;;;;0.68;100.00;100713.05;1451315;90;22855;-78
2023/12/08 01:39:46;;;;;;;36.60;22.37;;;;;;;0.68;100.00;100713.05;1448629;89;22007;-77
2023/12/08 01:42:12;;;;;;;34.53;20.43;;;;;;;0.74;100.00;100712.36;1451669;89;21611;-78
2023/12/08 01:44:38;;;;;;;35.03;18.80;;;;;;;0.77;100.00;100714.81;1441514;90;21487;-76
2023/12/08 01:47:10;;;;;;;36.27;21.53;;;;;;;0.79;100.00;100709.91;1453455;90;21813;-77
2023/12/08 01:49:38;;;;;;;35.73;21.03;;;;;;;0.81;100.00;100716.36;1443376;90;21736;-76
2023/12/08 01:52:06;;;;;;;;;;;;;;;0.81;100.00;100708.08;1447454;89;21677;-77
2023/12/08 01:54:33;;;;;;;35.47;20.50;;;;;;;0.81;100.00;100708.54;1449288;90;20885;-76
2023/12/08 01:57:01;;;;;;;33.27;20.27;;;;;;;0.80;100.00;100705.06;1451623;89;21867;-77
2023/12/08 01:59:30;;;;;;;36.53;23.07;;;;;;;0.79;100.00;100703.39;1461516;89;21842;-76
2023/12/08 02:01:56;;;;;;;32.03;20.33;;;;;;;0.78;100.00;100695.67;1454704;89;21689;-76
2023/12/08 02:04:23;;;;;;;33.93;19.37;;;;;;;0.74;100.00;100692.36;1447822;90;21904;-77
2023/12/08 02:06:49;;;;;;;31.93;19.10;;;;;;;0.74;100.00;100697.56;1456682;90;21870;-77
2023/12/08 02:09:15;;;;;;;33.77;20.60;;;;;;;0.72;100.00;100692.92;1454745;90;21673;-76
2023/12/08 02:11:42;;;;;;;35.70;21.23;;;;;;;0.76;100.00;100690.98;1457956;90;22322;-77
2023/12/08 02:14:13;;;;;;;35.30;18.53;;;;;;;0.78;100.00;100694.37;1451217;90;21699;-76
2023/12/08 02:16:57;;;;;;;36.13;20.57;;;;;;;0.79;100.00;100692.97;1448551;90;21899;-77
2023/12/08 02:19:24;;;;;;;38.87;22.63;;;;;;;0.81;100.00;100692.91;1436848;89;21721;-76
2023/12/08 02:21:50;;;;;;;30.80;20.43;;;;;;;0.82;100.00;100696.72;1452762;90;21915;-75
2023/12/08 02:24:19;;;;;;;32.87;19.53;;;;;;;0.80;100.00;100687.30;1451457;90;21734;-76
2023/12/08 02:26:47;;;;;;;34.63;19.97;;;;;;;0.76;100.00;100693.12;1456556;90;22556;-77
2023/12/08 02:29:14;;;;;;;36.10;21.50;;;;;;;0.73;100.00;100685.47;1452385;90;22659;-77
2023/12/08 02:32:01;;;;;;;36.33;21.67;;;;;;;0.76;100.00;100684.01;1449513;90;21818;-76
2023/12/08 02:34:30;;;;;;;34.10;18.97;;;;;;;0.77;100.00;100684.37;1460069;88;21854;-75
2023/12/08 02:36:59;;;;;;;71.20;25.03;;;;;;;0.74;100.00;100683.23;1447932;90;22734;-76
2023/12/08 02:39:27;;;;;;;32.33;19.23;;;;;;;0.76;100.00;100689.22;1452861;90;22638;-76
2023/12/08 02:41:54;;;;;;;37.77;22.30;;;;;;;0.75;100.00;100687.98;1441814;90;21909;-77
2023/12/08 02:44:20;;;;;;;31.77;19.43;;;;;;;0.69;100.00;100683.92;1448868;90;21913;-76
2023/12/08 02:46:46;;;;;;;32.43;18.87;;;;;;;0.64;100.00;100682.88;1450043;89;22733;-76
2023/12/08 02:49:13;;;;;;;37.83;22.43;;;;;;;0.64;100.00;100682.88;1441024;90;21877;-77
2023/12/08 02:51:39;;;;;;;49.03;20.90;;;;;;;0.67;100.00;100688.39;1452666;90;21746;-75
2023/12/08 02:54:05;;;;;;;34.97;21.07;;;;;;;0.68;100.00;100693.51;1447398;90;21684;-77
2023/12/08 02:56:31;;;;;;;36.57;21.07;;;;;;;0.66;100.00;100682.78;1444323;89;21770;-76
2023/12/08 02:58:57;;;;;;;37.23;22.60;;;;;;;0.64;100.00;100685.95;1447777;90;21730;-75
2023/12/08 03:01:23;;;;;;;38.00;22.03;;;;;;;0.64;100.00;100685.95;1459036;90;22897;-76
2023/12/08 03:03:49;;;;;;;33.70;19.40;;;;;;;0.59;100.00;100687.94;1455542;88;21732;-75
2023/12/08 03:06:16;;;;;;;40.80;22.60;;;;;;;0.61;100.00;100690.01;1452739;90;21742;-76
2023/12/08 03:08:43;;;;;;;37.83;22.37;;;;;;;0.60;100.00;100695.66;1457380;90;21777;-76
2023/12/08 03:11:09;;;;;;;35.23;21.53;;;;;;;0.56;100.00;100697.20;1453814;90;21671;-76
2023/12/08 03:13:35;;;;;;;38.43;20.60;;;;;;;0.54;100.00;100697.73;1457317;88;21804;-76
2023/12/08 03:16:01;;;;;;;36.17;19.20;;;;;;;0.52;100.00;100695.66;1453194;88;22624;-76
2023/12/08 03:18:27;;;;;;;39.00;21.63;;;;;;;0.52;100.00;100697.83;1449176;88;21852;-76
2023/12/08 03:20:54;;;;;;;37.23;21.53;;;;;;;0.45;100.00;100697.73;1461139;90;21752;-76
2023/12/08 03:23:20;;;;;;;42.17;24.67;;;;;;;0.48;100.00;100700.65;1447048;90;21763;-76
2023/12/08 03:25:46;;;;;;;34.47;20.77;;;;;;;0.48;100.00;100701.95;1453433;90;22714;-76
2023/12/08 03:28:12;;;;;;;42.43;23.23;;;;;;;0.48;100.00;100704.09;1454144;90;21695;-76
2023/12/08 03:30:38;;;;;;;40.17;22.50;;;;;;;0.48;100.00;100709.77;1455835;88;22131;-77
2023/12/08 03:33:04;;;;;;;42.87;22.13;;;;;;;0.52;100.00;100709.98;1455804;90;21338;-77
2023/12/08 03:35:31;;;;;;;38.30;21.80;;;;;;;0.56;100.00;100711.53;1449631;90;21708;-78
2023/12/08 03:37:57;;;;;;;42.43;23.97;;;;;;;0.54;100.00;100715.97;1455458;90;21787;-77
2023/12/08 03:40:23;;;;;;;46.47;23.83;;;;;;;0.55;100.00;100713.77;1455132;90;21747;-77
2023/12/08 03:42:49;;;;;;;40.63;24.23;;;;;;;0.56;100.00;100714.14;1450263;90;22672;-77
2023/12/08 03:45:15;;;;;;;36.13;21.97;;;;;;;0.56;100.00;100719.34;1458308;90;21738;-76
2023/12/08 03:47:41;;;;;;;40.23;22.90;;;;;;;0.55;100.00;100716.37;1455423;90;22694;-77
2023/12/08 03:50:09;;;;;;;43.70;23.73;;;;;;;0.55;100.00;100716.37;1444521;90;21748;-76
2023/12/08 03:52:35;;;;;;;43.67;25.33;;;;;;;0.60;100.00;100723.00;1456335;88;21691;-77
2023/12/08 03:55:01;;;;;;;38.53;22.00;;;;;;;0.62;100.00;100724.25;1458425;90;22524;-76
2023/12/08 03:57:28;;;;;;;38.70;22.30;;;;;;;0.62;100.00;100722.48;1442578;90;21834;-76
2023/12/08 03:59:54;;;;;;;44.67;25.53;;;;;;;0.63;100.00;100725.92;1451852;90;21850;-76
2023/12/08 04:02:20;;;;;;;41.13;24.07;;;;;;;0.59;100.00;100723.94;1447555;90;21900;-77
2023/12/08 04:04:46;;;;;;;41.73;22.67;;;;;;;0.60;100.00;100728.68;1446993;90;22623;-77
2023/12/08 04:07:13;;;;;;;39.13;23.47;;;;;;;0.59;100.00;100731.75;1456368;90;22158;-76
2023/12/08 04:09:39;;;;;;;39.57;23.57;;;;;;;0.60;100.00;100729.98;1453116;90;21871;-75
2023/12/08 04:12:05;;;;;;;36.20;21.47;;;;;;;0.59;100.00;100727.00;1450937;90;21652;-76
2023/12/08 04:14:32;;;;;;;36.37;22.90;;;;;;;0.59;100.00;100727.00;1454585;90;21420;-75
2023/12/08 04:16:58;;;;;;;36.23;21.73;;;;;;;0.58;100.00;100726.17;1447587;90;22506;-76
2023/12/08 04:19:25;;;;;;;35.63;22.23;;;;;;;0.54;100.00;100723.78;1452801;90;22620;-76
2023/12/08 04:21:51;;;;;;;37.47;21.30;;;;;;;0.48;100.00;100730.59;1455868;90;22057;-76
2023/12/08 04:24:18;;;;;;;39.63;23.30;;;;;;;0.42;100.00;100723.93;1451790;90;21655;-75
2023/12/08 04:26:44;;;;;;;44.77;24.43;;;;;;;0.38;100.00;100724.55;1455050;90;21737;-77
2023/12/08 04:29:10;;;;;;;148.60;71.10;;;;;;;0.41;100.00;100729.60;1452013;90;22992;-77
2023/12/08 04:31:36;;;;;;;119.93;61.43;;;;;;;0.46;100.00;100728.05;1453262;90;21667;-78
2023/12/08 04:34:03;;;;;;;40.80;24.87;;;;;;;0.50;100.00;100731.38;1452723;90;21672;-76
2023/12/08 04:36:29;;;;;;;42.00;23.17;;;;;;;0.50;100.00;100731.38;1454071;90;21843;-77
2023/12/08 04:38:55;;;;;;;40.60;23.37;;;;;;;0.44;100.00;100729.91;1453358;90;22706;-77
2023/12/08 04:41:21;;;;;;;38.07;23.07;;;;;;;0.41;100.00;100733.52;1449171;90;21727;-77
2023/12/08 04:43:47;;;;;;;44.67;24.50;;;;;;;0.41;100.00;100723.09;1451520;88;22240;-77
2023/12/08 04:46:13;;;;;;;36.87;22.07;;;;;;;0.41;100.00;100732.20;1456328;90;21722;-76
2023/12/08 04:48:40;;;;;;;43.57;24.50;;;;;;;0.47;100.00;100731.53;1454967;90;21680;-77
2023/12/08 04:51:06;;;;;;;38.77;22.10;;;;;;;0.47;100.00;100731.53;1451333;90;21936;-77
2023/12/08 04:53:33;;;;;;;39.30;24.43;;;;;;;0.48;100.00;100737.11;1452831;90;21801;-77
2023/12/08 04:55:59;;;;;;;41.53;25.33;;;;;;;0.45;100.00;100736.33;1459320;90;21551;-77
2023/12/08 04:58:25;;;;;;;46.60;25.67;;;;;;;0.41;100.00;100742.63;1453634;90;21809;-77
2023/12/08 05:00:51;;;;;;;41.33;23.87;;;;;;;0.39;100.00;100744.45;1455132;90;23347;-77
2023/12/08 05:03:17;;;;;;;44.17;24.73;;;;;;;0.37;100.00;100751.95;1450828;90;21628;-77
2023/12/08 05:05:44;;;;;;;45.13;24.90;;;;;;;0.30;100.00;100756.62;1450124;90;21696;-77
2023/12/08 05:08:11;;;;;;;47.57;27.77;;;;;;;0.31;100.00;100748.34;1453115;90;21668;-77
2023/12/08 05:10:37;;;;;;;36.90;22.83;;;;;;;0.34;100.00;100748.19;1449929;90;21700;-77
2023/12/08 05:13:03;;;;;;;39.73;22.63;;;;;;;0.37;100.00;100756.69;1454653;90;21738;-77
2023/12/08 05:15:30;;;;;;;46.43;25.37;;;;;;;0.38;100.00;100758.40;1456419;90;23002;-77
2023/12/08 05:17:56;;;;;;;33.57;20.40;;;;;;;0.41;100.00;100763.92;1459965;90;21758;-77
2023/12/08 05:20:22;;;;;;;45.00;25.57;;;;;;;0.39;100.00;100763.14;1449791;90;21619;-77
2023/12/08 05:22:48;;;;;;;46.03;24.70;;;;;;;0.39;100.00;100762.68;1447512;90;21677;-77
2023/12/08 05:25:14;;;;;;;41.37;23.23;;;;;;;0.41;100.00;100767.83;1444538;90;22885;-77
2023/12/08 05:27:40;;;;;;;41.57;24.70;;;;;;;0.39;100.00;100774.39;1456195;90;21561;-76
2023/12/08 05:30:08;;;;;;;42.47;24.30;;;;;;;0.37;100.00;100767.57;1453580;90;21642;-77
2023/12/08 05:32:34;;;;;;;41.63;23.23;;;;;;;0.38;100.00;100772.72;1451889;90;21775;-77
2023/12/08 05:35:00;;;;;;;37.77;21.80;;;;;;;0.42;100.00;100770.34;1434712;90;21615;-77
2023/12/08 05:37:26;;;;;;;66.30;35.37;;;;;;;0.48;100.00;100765.76;1449054;90;22677;-77
2023/12/08 05:39:53;;;;;;;119.83;52.13;;;;;;;0.50;100.00;100773.05;1442079;90;21778;-77
2023/12/08 05:42:19;;;;;;;48.70;29.97;;;;;;;0.50;100.00;100778.25;1450795;90;21693;-78
2023/12/08 05:44:45;;;;;;;45.07;26.07;;;;;;;0.44;100.00;100767.21;1450093;88;22572;-77
2023/12/08 05:47:11;;;;;;;40.57;23.03;;;;;;;0.45;100.00;100770.19;1451656;90;21723;-76
2023/12/08 05:49:37;;;;;;;44.73;27.97;;;;;;;0.45;100.00;100770.19;1448935;90;21944;-77
2023/12/08 05:52:04;;;;;;;43.57;24.60;;;;;;;0.41;100.00;100773.88;1452526;90;21590;-77
2023/12/08 05:54:30;;;;;;;41.80;25.97;;;;;;;0.32;100.00;100773.02;1459483;90;21552;-76
2023/12/08 05:56:58;;;;;;;40.47;24.43;;;;;;;0.31;100.00;100771.31;1452755;90;21749;-76
2023/12/08 05:59:24;;;;;;;45.97;26.20;;;;;;;0.30;100.00;100777.45;1452577;90;21747;-79
2023/12/08 06:01:53;;;;;;;45.83;25.93;;;;;;;0.31;100.00;100783.03;1448705;90;21573;-78
2023/12/08 06:04:19;;;;;;;38.73;22.80;;;;;;;0.32;100.00;100779.53;1452471;89;21666;-77
2023/12/08 06:06:45;;;;;;;43.47;24.67;;;;;;;0.34;100.00;100780.28;1447769;90;21708;-77
2023/12/08 06:09:11;;;;;;;40.03;24.33;;;;;;;0.37;100.00;100778.83;1456962;90;21855;-79
2023/12/08 06:11:37;;;;;;;39.27;23.10;;;;;;;0.39;100.00;100780.06;1447160;90;22751;-77
2023/12/08 06:14:06;;;;;;;42.77;24.60;;;;;;;0.37;100.00;100787.94;1457279;89;21505;-77
2023/12/08 06:16:32;;;;;;;41.17;23.30;;;;;;;0.37;100.00;100800.95;1454560;89;22796;-78
2023/12/08 06:18:59;;;;;;;38.77;24.17;;;;;;;0.39;100.00;100802.20;1454323;89;21483;-79
2023/12/08 06:21:25;;;;;;;44.30;26.10;;;;;;;0.39;100.00;100793.09;1450726;90;21692;-79
2023/12/08 06:23:52;;;;;;;41.93;22.57;;;;;;;0.40;100.00;100791.73;1453526;90;21691;-78
2023/12/08 06:26:18;;;;;;;38.60;21.37;;;;;;;0.38;100.00;100796.16;1445942;89;22531;-78
2023/12/08 06:28:44;;;;;;;40.77;24.10;;;;;;;0.33;100.00;100794.69;1452387;90;22662;-78
2023/12/08 06:31:11;;;;;;;41.23;24.77;;;;;;;0.29;100.00;100796.59;1448521;90;21725;-77
2023/12/08 06:33:37;;;;;;;43.77;24.83;;;;;;;0.30;100.00;100799.58;1452631;89;21841;-76
2023/12/08 06:36:05;;;;;;;44.80;24.70;;;;;;;0.34;100.00;100798.50;1445673;89;21609;-77
2023/12/08 06:38:31;;;;;;;43.43;24.37;;;;;;;0.36;100.00;100808.86;1447313;90;21499;-76
2023/12/08 06:40:57;;;;;;;44.53;26.50;;;;;;;0.38;100.00;100812.24;1451751;89;21598;-75
2023/12/08 06:43:23;;;;;;;45.63;28.20;;;;;;;0.42;100.00;100818.98;1457127;89;21601;-76
2023/12/08 06:45:49;;;;;;;50.23;30.00;;;;;;;0.45;100.00;100818.37;1450126;89;21869;-76
2023/12/08 06:48:17;;;;;;;45.63;27.13;;;;;;;0.55;100.00;100815.34;1443321;89;22625;-77
2023/12/08 06:50:43;;;;;;;43.53;24.63;;;;;;;0.62;100.00;100822.77;1447743;89;21650;-76
2023/12/08 06:53:09;;;;;;;42.43;25.07;;;;;;;0.67;100.00;100818.65;1456183;89;21664;-77
2023/12/08 06:55:35;;;;;;;87.13;46.30;;;;;;;0.72;100.00;100828.83;1454345;89;23154;-78
2023/12/08 06:58:02;;;;;;;78.20;43.00;;;;;;;0.73;100.00;100828.77;1449948;89;23026;-76
2023/12/08 07:00:28;;;;;;;75.07;40.73;;;;;;;0.76;100.00;100822.56;1449479;89;21692;-77
2023/12/08 07:02:54;;;;;;;130.07;66.53;;;;;;;0.76;100.00;100822.56;1448736;89;21789;-75
2023/12/08 07:05:20;;;;;;;81.57;45.60;;;;;;;0.76;100.00;100805.16;1450845;89;22613;-78
2023/12/08 07:07:47;;;;;;;109.03;61.17;;;;;;;0.85;100.00;100809.91;1450947;90;22618;-77
2023/12/08 07:10:15;;;;;;;67.87;40.53;;;;;;;0.89;100.00;100814.07;1449753;88;22567;-77
2023/12/08 07:12:42;;;;;;;73.87;38.83;;;;;;;0.89;100.00;100814.07;1450084;89;21750;-77
2023/12/08 07:15:10;;;;;;;45.30;27.27;;;;;;;0.94;100.00;100816.90;1453195;89;21870;-76
2023/12/08 07:17:37;;;;;;;45.10;25.23;;;;;;;0.94;100.00;100816.90;1450872;89;21909;-76
2023/12/08 07:20:06;;;;;;;43.47;26.00;;;;;;;0.93;100.00;100821.73;1464835;89;21737;-76
2023/12/08 07:22:33;;;;;;;44.00;24.57;;;;;;;0.94;100.00;100822.11;1451495;89;21645;-77
2023/12/08 07:24:59;;;;;;;44.77;28.77;;;;;;;0.99;100.00;100805.79;1447387;89;22001;-76
2023/12/08 07:27:26;;;;;;;41.90;24.27;;;;;;;0.99;100.00;100805.79;1454182;89;22992;-76
2023/12/08 07:29:52;;;;;;;63.37;36.93;;;;;;;1.02;100.00;100806.94;1450086;89;22019;-75
2023/12/08 07:32:19;;;;;;;43.50;25.13;;;;;;;1.04;100.00;100801.20;1452269;89;21846;-75
2023/12/08 07:34:45;;;;;;;74.03;37.77;;;;;;;1.07;100.00;100804.48;1446545;89;21836;-75
2023/12/08 07:37:11;;;;;;;62.50;35.37;;;;;;;1.07;100.00;100804.48;1452370;89;22277;-75
2023/12/08 07:39:38;;;;;;;53.40;30.03;;;;;;;1.07;100.00;100795.82;1452222;89;22771;-75
2023/12/08 07:42:04;;;;;;;46.83;27.40;;;;;;;1.15;100.00;100805.38;1457942;89;22923;-77
2023/12/08 07:44:31;;;;;;;45.23;26.73;;;;;;;1.31;100.00;100799.77;1453485;89;21911;-77
2023/12/08 07:46:57;;;;;;;51.97;30.40;;;;;;;1.37;100.00;100799.07;1453204;89;21858;-75
2023/12/08 07:49:23;;;;;;;46.03;26.33;;;;;;;1.44;100.00;100798.69;1447356;89;21762;-77
2023/12/08 07:51:50;;;;;;;42.93;26.23;;;;;;;1.44;100.00;100798.69;1448434;89;22046;-76
2023/12/08 07:54:18;;;;;;;44.57;26.53;;;;;;;1.44;100.00;100788.25;1453210;88;21861;-75
2023/12/08 07:56:45;;;;;;;50.67;28.17;;;;;;;1.43;100.00;100790.92;1454128;89;21948;-76
2023/12/08 07:59:11;;;;;;;57.30;31.37;;;;;;;1.31;100.00;100788.50;1450551;89;22139;-76
2023/12/08 08:01:37;;;;;;;51.77;28.73;;;;;;;1.31;100.00;100781.98;1444792;90;22244;-76
2023/12/08 08:04:03;;;;;;;46.40;28.03;;;;;;;1.26;100.00;100774.38;1451009;89;22102;-77
2023/12/08 08:06:30;;;;;;;46.17;26.77;;;;;;;1.34;100.00;100781.34;1453164;89;22293;-78
2023/12/08 08:08:56;;;;;;;46.13;27.43;;;;;;;1.33;100.00;100766.63;1445266;90;21942;-77
2023/12/08 08:11:22;;;;;;;43.83;24.60;;;;;;;1.37;100.00;100774.30;1453914;90;22982;-78
2023/12/08 08:13:49;;;;;;;41.30;24.07;;;;;;;1.37;100.00;100774.30;1444553;88;22058;-78
2023/12/08 08:16:15;;;;;;;42.10;25.77;;;;;;;1.44;100.00;100776.52;1444623;90;23633;-77
2023/12/08 08:18:41;;;;;;;45.80;26.50;;;;;;;1.44;100.00;100776.52;1450750;89;21920;-78
2023/12/08 08:21:07;;;;;;;51.40;27.13;;;;;;;1.47;100.00;100785.48;1452839;89;22093;-78
2023/12/08 08:23:33;;;;;;;42.83;25.67;;;;;;;1.50;100.00;100794.45;1455148;89;22113;-77
2023/12/08 08:25:59;;;;;;;41.70;23.57;;;;;;;1.56;100.00;100807.63;1441753;89;22158;-78
2023/12/08 08:28:26;;;;;;;37.17;21.67;;;;;;;1.50;100.00;100806.65;1454334;89;22669;-78
2023/12/08 08:30:55;;;;;;;35.57;21.73;;;;;;;1.40;100.00;100818.47;1448310;90;22032;-78
2023/12/08 08:33:22;;;;;;;37.50;22.53;;;;;;;1.46;100.00;100818.98;1449880;90;22025;-76
2023/12/08 08:35:48;;;;;;;61.00;32.13;;;;;;;1.46;100.00;100818.98;1448148;89;22145;-77
2023/12/08 08:38:15;;;;;;;47.90;25.07;;;;;;;1.53;100.00;100818.23;1460383;89;22302;-77
2023/12/08 08:40:41;;;;;;;44.90;21.77;;;;;;;1.57;100.00;100818.44;1455908;89;22473;-78
2023/12/08 08:43:07;;;;;;;98.53;41.57;;;;;;;1.64;100.00;100821.55;1444452;89;22366;-76
2023/12/08 08:45:33;;;;;;;138.50;63.00;;;;;;;1.64;100.00;100821.55;1450863;90;22150;-76
2023/12/08 08:48:00;;;;;;;54.00;28.73;;;;;;;1.67;100.00;100818.78;1449912;89;22293;-77
2023/12/08 08:50:26;;;;;;;66.07;33.73;;;;;;;1.77;100.00;100833.87;1444028;89;23159;-78
2023/12/08 08:52:52;;;;;;;65.07;32.80;;;;;;;1.91;100.00;100837.53;1451718;89;22091;-77
2023/12/08 08:55:18;;;;;;;40.33;21.97;;;;;;;1.95;100.00;100842.48;1448906;89;22075;-78
2023/12/08 08:57:44;;;;;;;92.53;47.70;;;;;;;1.86;100.00;100839.54;1449608;90;22061;-78
2023/12/08 09:00:12;;;;;;;42.33;24.93;;;;;;;1.97;100.00;100837.20;1454858;89;22230;-76
2023/12/08 09:02:39;;;;;;;53.87;26.57;;;;;;;2.00;100.00;100837.03;1456931;89;22987;-77
2023/12/08 09:05:06;;;;;;;75.40;36.83;;;;;;;2.02;100.00;100833.89;1445067;90;23144;-77
2023/12/08 09:07:32;;;;;;;149.63;65.23;;;;;;;2.05;100.00;100828.50;1449601;90;22201;-77
2023/12/08 09:09:58;;;;;;;98.97;42.77;;;;;;;2.06;100.00;100826.25;1450928;90;22122;-78
2023/12/08 09:12:25;;;;;;;162.13;66.37;;;;;;;2.03;100.00;100822.04;1450042;88;23142;-78
2023/12/08 09:14:51;;;;;;;48.70;27.67;;;;;;;2.06;100.00;100822.34;1450766;89;22242;-78
2023/12/08 09:17:17;;;;;;;36.43;22.53;;;;;;;2.06;100.00;100813.20;1450824;89;23523;-78
2023/12/08 09:19:43;;;;;;;35.63;21.10;;;;;;;2.04;100.00;100801.98;1448783;90;22084;-78
2023/12/08 09:22:10;;;;;;;32.10;20.43;;;;;;;2.09;100.00;100797.83;1452251;90;22084;-78
2023/12/08 09:24:36;;;;;;;31.73;20.27;;;;;;;2.00;100.00;100804.40;1445000;90;22272;-78
2023/12/08 09:27:03;;;;;;;38.57;22.70;;;;;;;2.07;100.00;100805.73;1445551;89;22139;-77
2023/12/08 09:29:29;;;;;;;41.67;23.37;;;;;;;2.03;100.00;100805.53;1453481;89;22159;-77
2023/12/08 09:31:55;;;;;;;38.30;22.73;;;;;;;2.30;100.00;100794.02;1448347;89;22259;-77
2023/12/08 09:34:21;;;;;;;34.20;20.93;;;;;;;2.30;100.00;100794.02;1449433;89;21466;-78
2023/12/08 09:36:47;;;;;;;27.73;18.80;;;;;;;2.46;100.00;100790.93;1455839;90;21324;-78
2023/12/08 09:39:13;;;;;;;35.43;21.77;;;;;;;2.96;100.00;100787.63;1449407;89;21382;-78
2023/12/08 09:41:40;;;;;;;53.47;27.57;;;;;;;3.29;100.00;100790.03;1411224;89;22259;-79
2023/12/08 09:44:13;;;;;;;36.70;20.40;;;;;;;3.78;100.00;100782.28;1452331;89;21376;-78
2023/12/08 09:46:44;;;;;;;70.17;30.70;;;;;;;3.95;100.00;100775.98;1458994;89;21530;-78
2023/12/08 09:49:16;;;;;;;33.27;20.87;;;;;;;4.53;100.00;100777.02;1441555;89;21353;-79
2023/12/08 09:51:42;;;;;;;29.47;19.10;;;;;;;5.00;100.00;100771.34;1453459;89;21471;-81
2023/12/08 09:54:10;;;;;;;30.13;20.27;;;;;;;4.95;100.00;100765.11;1451809;89;21487;-80
2023/12/08 09:56:38;;;;;;;27.40;19.27;;;;;;;5.25;100.00;100758.23;1449651;90;21457;-80
2023/12/08 09:59:05;;;;;;;33.80;21.23;;;;;;;5.31;100.00;100751.25;1454780;90;22473;-79
2023/12/08 10:01:33;;;;;;;29.40;20.30;;;;;;;5.47;100.00;100755.42;1450304;89;21463;-79
2023/12/08 10:03:59;;;;;;;33.13;21.33;;;;;;;5.51;100.00;100754.28;1455896;89;22204;-80
2023/12/08 10:06:28;;;;;;;30.47;20.70;;;;;;;5.71;100.00;100754.20;1456978;90;21883;-79
2023/12/08 10:08:56;;;;;;;46.10;30.73;;;;;;;5.69;100.00;100755.61;1452501;89;21383;-78
2023/12/08 10:11:23;;;;;;;29.10;19.27;;;;;;;6.11;100.00;100760.11;1443118;89;21396;-80
2023/12/08 10:13:50;;;;;;;26.93;18.47;;;;;;;6.15;100.00;100757.61;1444746;89;21655;-79
2023/12/08 10:16:16;;;;;;;27.67;18.97;;;;;;;6.23;100.00;100759.69;1452284;89;21471;-79
2023/12/08 10:18:42;;;;;;;29.30;19.93;;;;;;;6.38;100.00;100754.62;1451325;89;21330;-79
2023/12/08 10:21:19;;;;;;;28.13;19.90;;;;;;;6.63;100.00;100754.14;1452968;89;21443;-79
2023/12/08 10:23:46;;;;;;;24.53;18.30;;;;;;;6.71;100.00;100743.89;1447034;89;21530;-79
2023/12/08 10:26:13;;;;;;;28.03;20.23;;;;;;;6.38;100.00;100749.84;1456058;90;21420;-79
2023/12/08 10:28:40;;;;;;;29.17;20.50;;;;;;;6.21;100.00;100752.39;1448581;89;21512;-78
2023/12/08 10:31:08;;;;;;;29.33;20.30;;;;;;;6.42;100.00;100753.94;1448176;89;21427;-79
2023/12/08 10:33:34;;;;;;;28.53;18.70;;;;;;;6.44;100.00;100752.02;1453252;89;21383;-79
2023/12/08 10:36:01;;;;;;;27.13;18.53;;;;;;;5.98;100.00;100761.45;1459845;89;22270;-79
2023/12/08 10:38:27;;;;;;;26.20;17.97;;;;;;;6.12;100.00;100753.89;1457731;89;21390;-79
2023/12/08 10:40:54;;;;;;;27.73;19.77;;;;;;;5.88;100.00;100748.11;1445035;90;22293;-79
2023/12/08 10:43:25;;;;;;;27.37;17.97;;;;;;;5.81;100.00;100757.39;1458266;90;21353;-78
2023/12/08 10:45:53;;;;;;;24.70;17.80;;;;;;;5.50;100.00;100748.68;1443723;90;21405;-79
2023/12/08 10:48:20;;;;;;;33.70;23.77;;;;;;;5.66;100.00;100747.95;1449127;90;21338;-78
2023/12/08 10:50:49;;;;;;;24.70;15.90;;;;;;;5.91;100.00;100744.91;1451312;89;22300;-80
2023/12/08 10:53:18;;;;;;;30.37;20.27;;;;;;;5.53;100.00;100741.90;1462017;88;21619;-79
2023/12/08 10:56:07;;;;;;;29.13;19.33;;;;;;;5.75;100.00;100731.53;1445271;90;21398;-79
2023/12/08 10:58:35;;;;;;;28.23;17.90;;;;;;;5.65;100.00;100726.58;1457085;89;21494;-79
2023/12/08 11:01:06;;;;;;;30.73;19.60;;;;;;;5.78;100.00;100729.16;1469264;89;21360;-79
2023/12/08 11:03:32;;;;;;;;;;;;;;;5.62;100.00;100725.02;1458532;89;21338;-78
2023/12/08 11:06:09;;;;;;;28.03;19.70;;;;;;;5.49;100.00;100724.66;1448781;89;20927;-77
2023/12/08 11:08:38;;;;;;;33.40;24.97;;;;;;;5.73;100.00;100718.17;1453481;89;21449;-79